Weather - Helsinki Query any day in the database

Current weather  

Weather data for a selected day (2006-01-01 -2020-10-30)
Enter date:     <-     scroll days         ->
day curves
Low temperature°C +2.107:30
High temperature°C +6.815:30
Low wind chill°C -1.105:30
Average temperature°C +4.7 
High wind speed (10 min) m/s 10.410:00
Low pressurehPa 984.423:30
High pressurehPa 1005.400:00
Low R.H% 8013:30
High R.H% 9923:30
High precipitation (1h)mm 1.710:00
Total precipitation of the daymm 4.6 
Day weather data as a table
Date Time Temp
°C
Chill
°C
Pressure
hPA
Wind
m/s
Hum
%
Precip
mm
2018-10-23 23:30:00 4.5  0.8  984.4 4.7 99 -
2018-10-23 23:00:00 4.7  0.9  984.6 5.1 99 -
2018-10-23 22:30:00 4.8  1.1  984.6 4.9 99 -
2018-10-23 22:00:00 4.9  1.9  984.7 3.7 99 -
2018-10-23 21:30:00 5.0  2.0  984.7 3.8 98 -
2018-10-23 21:00:00 5.0  2.1  984.8 3.5 99 -
2018-10-23 20:30:00 5.1  1.9  984.9 4.1 98 -
2018-10-23 20:00:00 5.2  2.7  985.1 3.0 98 -
2018-10-23 19:30:00 5.4  3.4  985.4 2.4 96 -
2018-10-23 19:00:00 5.8  2.5  985.6 4.7 92 0.2
2018-10-23 18:30:00 5.7  2.1  985.7 5.3 92 -
2018-10-23 18:00:00 6.3  2.9  985.8 5.0 86 0.4
2018-10-23 17:30:00 6.3  3.4  986.1 4.1 89 -
2018-10-23 17:00:00 6.3  3.2  986.5 4.4 93 0.2
2018-10-23 16:30:00 6.5  3.0  986.8 5.5 90 -
2018-10-23 16:00:00 6.2  2.1  987.3 6.7 89 0.1
2018-10-23 15:30:00 6.8  3.7  987.8 4.8 91 -
2018-10-23 15:00:00 6.0  3.8  988.4 2.9 92 -
2018-10-23 14:30:00 6.6  2.8  989.0 6.2 89 -
2018-10-23 14:00:00 6.7  4.2  989.5 3.5 87 0.2
2018-10-23 13:30:00 6.7  3.3  990.0 5.3 80 -
2018-10-23 13:00:00 6.6  4.3  990.6 3.2 85 0.1
2018-10-23 12:30:00 5.8  4.1  991.3 2.2 93 -
2018-10-23 12:00:00 5.0  3.4  991.9 2.0 94 0.8
2018-10-23 11:30:00 4.9  2.9  992.6 2.3 91 -
2018-10-23 11:00:00 4.6  3.0  993.4 1.9 90 0.9
2018-10-23 10:30:00 4.5  2.4  994.2 2.4 88 -
2018-10-23 10:00:00 5.3  -0.1  994.6 10.4 84 1.7
2018-10-23 09:30:00 6.8  3.4  994.9 5.4 83 -
2018-10-23 09:00:00 6.1  3.5  995.4 3.4 89 -
2018-10-23 08:30:00 2.8  1.2  995.9 1.7 97 -
2018-10-23 08:00:00 2.9  1.4  996.6 1.6 95 -
2018-10-23 07:30:00 2.1  0.8  997.3 1.4 95 -
2018-10-23 07:00:00 2.7  0.5  998.1 2.2 95 -
2018-10-23 06:30:00 3.7  1.5  998.9 2.3 92 -
2018-10-23 06:00:00 2.7  -0.4  999.5 3.1 95 -
2018-10-23 05:30:00 2.3  -1.1  1000.1 3.5 94 -
2018-10-23 05:00:00 2.7  -0.6  1000.8 3.4 91 -
2018-10-23 04:30:00 2.8  -0.9  1001.5 4.1 90 -
2018-10-23 04:00:00 3.3  -0.4  1001.9 4.3 87 -
2018-10-23 03:30:00 3.4  -0.4  1002.7 4.4 86 -
2018-10-23 03:00:00 3.4  -0.6  1003.2 4.8 86 -
2018-10-23 02:30:00 3.6  -0.1  1003.7 4.3 85 -
2018-10-23 02:00:00 3.9  -0.3  1004.1 5.5 84 -
2018-10-23 01:30:00 3.7  -0.2  1004.6 4.7 87 -
2018-10-23 01:00:00 3.6  -0.3  1004.9 4.7 88 -
2018-10-23 00:30:00 3.6  -0.2  1005.2 4.6 89 -
2018-10-23 00:00:00 3.8  1.0  1005.4 3.1 90 -
Unit conversions: